createdAt,value
2022-10-23T00:01:46.311Z,11.69
2022-10-23T00:04:12.418Z,11.71
2022-10-23T00:06:38.591Z,11.70
2022-10-23T00:09:04.722Z,11.72
2022-10-23T00:11:30.841Z,11.70
2022-10-23T00:13:57.004Z,11.70
2022-10-23T00:16:23.140Z,11.71
2022-10-23T00:18:49.288Z,11.67
2022-10-23T00:21:15.408Z,11.65
2022-10-23T00:23:41.543Z,11.65
2022-10-23T00:26:07.664Z,11.60
2022-10-23T00:28:33.803Z,11.60
2022-10-23T00:30:59.958Z,11.60
2022-10-23T00:33:26.097Z,11.62
2022-10-23T00:35:52.235Z,11.63
2022-10-23T00:38:18.343Z,11.63
2022-10-23T00:40:44.479Z,11.63
2022-10-23T00:43:10.660Z,11.61
2022-10-23T00:45:36.818Z,11.62
2022-10-23T00:48:02.965Z,11.63
2022-10-23T00:50:29.113Z,11.64
2022-10-23T00:52:55.257Z,11.64
2022-10-23T00:55:21.365Z,11.67
2022-10-23T00:57:47.521Z,11.68
2022-10-23T01:00:13.638Z,11.68
2022-10-23T01:02:39.938Z,11.65
2022-10-23T01:05:06.186Z,11.63
2022-10-23T01:07:32.323Z,11.64
2022-10-23T01:09:58.493Z,11.64
2022-10-23T01:12:24.671Z,11.63
2022-10-23T01:14:50.819Z,11.63
2022-10-23T01:17:16.929Z,11.59
2022-10-23T01:19:43.068Z,11.58
2022-10-23T01:22:09.219Z,11.58
2022-10-23T01:24:35.370Z,11.56
2022-10-23T01:27:01.482Z,11.53
2022-10-23T01:29:27.620Z,11.51
2022-10-23T01:31:53.745Z,11.49
2022-10-23T01:34:19.867Z,11.47
2022-10-23T01:36:45.980Z,11.42
2022-10-23T01:39:12.083Z,11.38
2022-10-23T01:41:38.240Z,11.36
2022-10-23T01:44:04.341Z,11.35
2022-10-23T01:46:30.450Z,11.37
2022-10-23T01:48:56.581Z,11.31
2022-10-23T01:51:22.685Z,11.30
2022-10-23T01:53:48.822Z,11.26
2022-10-23T01:56:14.925Z,11.23
2022-10-23T01:58:41.032Z,11.19
2022-10-23T02:01:07.240Z,11.16
2022-10-23T02:03:33.407Z,11.14
2022-10-23T02:05:59.539Z,11.11
2022-10-23T02:08:25.685Z,11.09
2022-10-23T02:10:51.826Z,11.07
2022-10-23T02:13:17.942Z,11.01
2022-10-23T02:15:44.075Z,11.05
2022-10-23T02:18:10.208Z,11.04
2022-10-23T02:20:36.385Z,11.02
2022-10-23T02:23:02.531Z,10.97
2022-10-23T02:25:28.653Z,10.96
2022-10-23T02:27:54.779Z,10.95
2022-10-23T02:30:20.888Z,10.93
2022-10-23T02:32:46.979Z,10.95
2022-10-23T02:35:13.136Z,10.92
2022-10-23T02:37:39.490Z,10.92
2022-10-23T02:40:05.710Z,10.89
2022-10-23T02:42:31.814Z,10.89
2022-10-23T02:44:57.959Z,10.88
2022-10-23T02:47:24.064Z,10.89
2022-10-23T02:49:50.209Z,10.86
2022-10-23T02:52:16.354Z,10.84
2022-10-23T02:54:42.461Z,10.82
2022-10-23T02:57:08.587Z,10.84
2022-10-23T02:59:34.710Z,10.83
2022-10-23T03:02:00.939Z,10.83
2022-10-23T03:04:27.084Z,10.83
2022-10-23T03:06:53.260Z,10.78
2022-10-23T03:09:19.358Z,10.78
2022-10-23T03:11:45.490Z,10.76
2022-10-23T03:14:11.629Z,10.75
2022-10-23T03:16:37.772Z,10.72
2022-10-23T03:19:03.940Z,10.71
2022-10-23T03:21:30.133Z,10.68
2022-10-23T03:23:56.233Z,10.69
2022-10-23T03:26:22.332Z,10.70
2022-10-23T03:28:48.475Z,10.69
2022-10-23T03:31:14.620Z,10.71
2022-10-23T03:33:40.740Z,10.69
2022-10-23T03:36:06.866Z,10.51
2022-10-23T03:38:32.986Z,10.65
2022-10-23T03:40:59.133Z,10.61
2022-10-23T03:43:25.234Z,10.64
2022-10-23T03:45:51.335Z,10.62
2022-10-23T03:48:17.479Z,10.60
2022-10-23T03:50:43.576Z,10.65
2022-10-23T03:53:09.693Z,10.59
2022-10-23T03:55:35.823Z,10.58
2022-10-23T03:58:01.961Z,10.50
2022-10-23T04:00:28.113Z,10.50
2022-10-23T04:02:54.234Z,10.47
2022-10-23T04:05:20.351Z,10.44
2022-10-23T04:07:46.453Z,10.40
2022-10-23T04:10:12.607Z,10.39
2022-10-23T04:12:38.738Z,10.36
2022-10-23T04:15:04.845Z,10.33
2022-10-23T04:17:31.005Z,10.27
2022-10-23T04:19:57.135Z,10.25
2022-10-23T04:22:26.015Z,10.25
2022-10-23T04:24:54.480Z,10.28
2022-10-23T04:27:20.586Z,10.28
2022-10-23T04:29:46.730Z,10.26
2022-10-23T04:32:12.843Z,10.25
2022-10-23T04:34:39.002Z,10.23
2022-10-23T04:37:05.121Z,10.24
2022-10-23T04:39:31.249Z,10.22
2022-10-23T04:41:57.406Z,10.23
2022-10-23T04:44:23.546Z,10.24
2022-10-23T04:46:49.661Z,10.22
2022-10-23T04:49:15.795Z,10.23
2022-10-23T04:51:41.947Z,10.22
2022-10-23T04:54:08.074Z,10.25
2022-10-23T04:56:34.197Z,10.24
2022-10-23T04:59:00.406Z,10.21
2022-10-23T05:01:26.652Z,10.22
2022-10-23T05:03:52.871Z,10.21
2022-10-23T05:06:18.981Z,10.39
2022-10-23T05:08:45.151Z,10.51
2022-10-23T05:11:11.296Z,10.61
2022-10-23T05:13:37.400Z,10.68
2022-10-23T05:16:03.563Z,10.76
2022-10-23T05:18:29.672Z,10.82
2022-10-23T05:20:55.801Z,10.89
2022-10-23T05:23:21.896Z,10.93
2022-10-23T05:25:48.021Z,10.97
2022-10-23T05:28:14.153Z,10.98
2022-10-23T05:30:40.282Z,10.97
2022-10-23T05:33:06.397Z,10.98
2022-10-23T05:35:32.520Z,10.96
2022-10-23T05:37:58.625Z,11.00
2022-10-23T05:40:24.874Z,11.01
2022-10-23T05:42:51.053Z,11.06
2022-10-23T05:45:17.176Z,11.10
2022-10-23T05:47:43.302Z,11.14
2022-10-23T05:50:09.415Z,11.16
2022-10-23T05:52:35.553Z,11.14
2022-10-23T05:55:04.537Z,11.15
2022-10-23T05:57:30.640Z,11.11
2022-10-23T05:59:56.748Z,11.10
2022-10-23T06:02:22.961Z,11.08
2022-10-23T06:04:49.087Z,11.05
2022-10-23T06:07:15.198Z,11.03
2022-10-23T06:09:41.490Z,10.98
2022-10-23T06:12:07.630Z,10.95
2022-10-23T06:14:33.733Z,10.93
2022-10-23T06:16:59.864Z,10.91
2022-10-23T06:19:26.006Z,10.90
2022-10-23T06:21:52.145Z,10.90
2022-10-23T06:24:18.271Z,10.95
2022-10-23T06:26:44.428Z,11.00
2022-10-23T06:29:10.540Z,11.03
2022-10-23T06:31:36.667Z,11.06
2022-10-23T06:34:02.817Z,11.09
2022-10-23T06:36:28.923Z,11.15
2022-10-23T06:38:55.095Z,11.19
2022-10-23T06:41:21.294Z,11.24
2022-10-23T06:43:47.427Z,11.30
2022-10-23T06:46:13.531Z,11.32
2022-10-23T06:48:39.676Z,11.35
2022-10-23T06:51:05.805Z,11.35
2022-10-23T06:53:31.962Z,11.40
2022-10-23T06:55:58.085Z,11.46
2022-10-23T06:58:24.208Z,11.50
2022-10-23T07:00:50.395Z,11.57
2022-10-23T07:03:16.630Z,11.60
2022-10-23T07:05:42.748Z,11.70
2022-10-23T07:08:08.874Z,11.79
2022-10-23T07:10:34.985Z,11.86
2022-10-23T07:13:01.369Z,11.96
2022-10-23T07:15:27.656Z,12.02
2022-10-23T07:17:53.766Z,12.06
2022-10-23T07:20:19.882Z,12.14
2022-10-23T07:22:46.025Z,12.28
2022-10-23T07:25:12.168Z,12.36
2022-10-23T07:27:38.300Z,12.48
2022-10-23T07:30:04.440Z,12.51
2022-10-23T07:32:30.593Z,12.55
2022-10-23T07:34:56.726Z,12.60
2022-10-23T07:37:22.841Z,12.64
2022-10-23T07:39:48.964Z,12.67
2022-10-23T07:42:15.109Z,12.73
2022-10-23T07:44:41.265Z,12.81
2022-10-23T07:47:07.374Z,12.89
2022-10-23T07:49:33.488Z,12.96
2022-10-23T07:51:59.975Z,13.04
2022-10-23T07:54:26.105Z,13.14
2022-10-23T07:56:52.213Z,13.20
2022-10-23T07:59:18.353Z,13.27
2022-10-23T08:01:44.572Z,13.32
2022-10-23T08:04:13.796Z,13.38
2022-10-23T08:06:39.915Z,13.48
2022-10-23T08:09:06.829Z,13.57
2022-10-23T08:11:33.324Z,13.68
2022-10-23T08:14:01.513Z,13.87
2022-10-23T08:16:27.896Z,14.09
2022-10-23T08:18:54.037Z,14.39
2022-10-23T08:21:20.258Z,14.79
2022-10-23T08:23:46.416Z,15.29
2022-10-23T08:26:12.722Z,15.49
2022-10-23T08:28:38.835Z,15.45
2022-10-23T08:31:04.974Z,15.61
2022-10-23T08:33:31.094Z,15.75
2022-10-23T08:35:57.224Z,15.81
2022-10-23T08:38:23.466Z,15.72
2022-10-23T08:40:49.581Z,15.58
2022-10-23T08:43:15.720Z,15.59
2022-10-23T08:45:41.836Z,15.57
2022-10-23T08:48:07.993Z,15.76
2022-10-23T08:50:34.154Z,16.08
2022-10-23T08:53:00.340Z,16.50
2022-10-23T08:55:26.460Z,16.69
2022-10-23T08:57:52.599Z,16.90
2022-10-23T09:00:18.703Z,17.04
2022-10-23T09:02:45.046Z,17.36
2022-10-23T09:05:11.427Z,17.41
2022-10-23T09:07:37.562Z,17.49
2022-10-23T09:10:03.790Z,17.66
2022-10-23T09:12:29.902Z,17.90
2022-10-23T09:14:56.036Z,18.04
2022-10-23T09:17:22.193Z,18.46
2022-10-23T09:19:48.295Z,18.62
2022-10-23T09:22:14.425Z,18.81
2022-10-23T09:24:40.553Z,19.01
2022-10-23T09:27:06.711Z,19.24
2022-10-23T09:29:32.887Z,19.35
2022-10-23T09:31:59.043Z,19.56
2022-10-23T09:34:25.196Z,19.69
2022-10-23T09:36:51.334Z,19.71
2022-10-23T09:39:17.520Z,19.57
2022-10-23T09:41:43.654Z,19.48
2022-10-23T09:44:09.759Z,19.74
2022-10-23T09:46:35.901Z,20.02
2022-10-23T09:49:04.973Z,19.92
2022-10-23T09:51:31.991Z,19.71
2022-10-23T09:53:58.120Z,19.90
2022-10-23T09:56:24.866Z,20.16
2022-10-23T09:58:52.197Z,20.21
2022-10-23T10:01:18.406Z,20.41
2022-10-23T10:03:44.568Z,20.28
2022-10-23T10:06:10.677Z,20.28
2022-10-23T10:08:36.804Z,20.07
2022-10-23T10:11:02.921Z,19.75
2022-10-23T10:13:29.080Z,19.39
2022-10-23T10:15:55.242Z,19.23
2022-10-23T10:18:21.399Z,19.06
2022-10-23T10:20:47.767Z,18.98
2022-10-23T10:23:13.909Z,18.91
2022-10-23T10:25:41.692Z,18.92
2022-10-23T10:28:07.826Z,18.94
2022-10-23T10:30:34.075Z,18.96
2022-10-23T10:33:00.231Z,19.02
2022-10-23T10:35:26.358Z,19.13
2022-10-23T10:37:52.950Z,19.28
2022-10-23T10:40:19.410Z,19.40
2022-10-23T10:42:45.578Z,19.72
2022-10-23T10:45:11.727Z,19.98
2022-10-23T10:47:37.880Z,20.23
2022-10-23T10:50:04.027Z,20.43
2022-10-23T10:52:30.542Z,20.67
2022-10-23T10:54:56.647Z,21.00
2022-10-23T10:57:22.752Z,20.92
2022-10-23T10:59:48.909Z,20.72
2022-10-23T11:02:15.108Z,20.61
2022-10-23T11:04:41.513Z,20.71
2022-10-23T11:07:07.669Z,21.18
2022-10-23T11:09:33.806Z,21.36
2022-10-23T11:11:59.907Z,20.89
2022-10-23T11:14:26.024Z,20.70
2022-10-23T11:16:52.188Z,20.51
2022-10-23T11:19:18.304Z,20.30
2022-10-23T11:21:44.469Z,20.31
2022-10-23T11:26:41.636Z,20.33
2022-10-23T11:29:07.761Z,20.45
2022-10-23T11:31:33.875Z,20.42
2022-10-23T11:34:00.045Z,20.48
2022-10-23T11:36:26.173Z,20.53
2022-10-23T11:38:52.315Z,20.43
2022-10-23T11:41:21.023Z,20.41
2022-10-23T11:43:49.896Z,20.50
2022-10-23T11:46:16.029Z,20.46
2022-10-23T11:48:42.146Z,20.66
2022-10-23T11:51:08.285Z,20.87
2022-10-23T11:53:34.420Z,21.18
2022-10-23T11:56:00.536Z,21.49
2022-10-23T11:58:26.682Z,21.85
2022-10-23T12:00:52.814Z,22.06
2022-10-23T12:03:26.486Z,22.11
2022-10-23T12:05:52.738Z,21.98
2022-10-23T12:08:18.965Z,22.01
2022-10-23T12:10:45.246Z,21.90
2022-10-23T12:13:11.374Z,21.81
2022-10-23T12:15:54.967Z,21.77
2022-10-23T12:21:13.911Z,21.38
2022-10-23T12:23:43.166Z,21.22
2022-10-23T12:26:11.963Z,21.16
2022-10-23T12:28:38.105Z,21.08
2022-10-23T12:31:04.291Z,21.11
2022-10-23T12:33:30.409Z,21.21
2022-10-23T12:35:56.539Z,21.41
2022-10-23T12:38:22.666Z,21.55
2022-10-23T12:40:48.767Z,21.63
2022-10-23T12:43:14.919Z,21.60
2022-10-23T12:45:41.061Z,21.58
2022-10-23T12:48:07.186Z,21.62
2022-10-23T12:50:33.322Z,21.70
2022-10-23T12:52:59.446Z,21.84
2022-10-23T12:55:25.573Z,21.89
2022-10-23T12:57:51.697Z,21.90
2022-10-23T13:00:18.001Z,21.98
2022-10-23T13:02:44.211Z,22.03
2022-10-23T13:05:10.374Z,22.12
2022-10-23T13:07:36.556Z,22.28
2022-10-23T13:10:05.699Z,22.35
2022-10-23T13:12:31.861Z,22.45
2022-10-23T13:14:58.050Z,22.46
2022-10-23T13:17:24.171Z,22.59
2022-10-23T13:19:50.399Z,22.52
2022-10-23T13:22:16.547Z,22.48
2022-10-23T13:24:42.686Z,22.51
2022-10-23T13:27:08.821Z,22.56
2022-10-23T13:29:35.033Z,22.54
2022-10-23T13:32:01.130Z,22.41
2022-10-23T13:34:27.328Z,22.28
2022-10-23T13:36:53.838Z,22.24
2022-10-23T13:39:20.049Z,22.24
2022-10-23T13:41:46.158Z,22.30
2022-10-23T13:44:12.276Z,22.34
2022-10-23T13:46:38.373Z,22.32
2022-10-23T13:49:04.675Z,22.31
2022-10-23T13:51:30.827Z,22.29
2022-10-23T13:53:56.966Z,22.23
2022-10-23T13:56:23.105Z,22.07
2022-10-23T13:58:49.233Z,22.00
2022-10-23T14:01:15.482Z,21.99
2022-10-23T14:03:41.664Z,21.96
2022-10-23T14:06:07.813Z,21.92
2022-10-23T14:08:33.980Z,21.90
2022-10-23T14:11:00.128Z,21.91
2022-10-23T14:13:26.292Z,21.88
2022-10-23T14:15:52.443Z,21.85
2022-10-23T14:18:18.605Z,21.79
2022-10-23T14:20:44.737Z,21.63
2022-10-23T14:23:10.877Z,21.51
2022-10-23T14:25:37.007Z,21.37
2022-10-23T14:28:03.170Z,21.25
2022-10-23T14:30:31.711Z,21.16
2022-10-23T14:32:57.819Z,21.15
2022-10-23T14:35:23.944Z,21.09
2022-10-23T14:37:50.237Z,20.95
2022-10-23T14:40:16.352Z,20.87
2022-10-23T14:42:42.502Z,20.82
2022-10-23T14:45:08.690Z,20.79
2022-10-23T14:47:34.829Z,20.85
2022-10-23T14:50:03.320Z,20.94
2022-10-23T14:52:29.507Z,20.98
2022-10-23T14:54:55.661Z,21.05
2022-10-23T14:57:24.108Z,21.08
2022-10-23T14:59:50.246Z,21.07
2022-10-23T15:02:16.390Z,21.06
2022-10-23T15:04:42.510Z,20.99
2022-10-23T15:07:08.622Z,20.96
2022-10-23T15:09:37.161Z,20.87
2022-10-23T15:12:03.277Z,20.75
2022-10-23T15:14:29.387Z,20.72
2022-10-23T15:16:55.516Z,20.64
2022-10-23T15:19:21.642Z,20.58
2022-10-23T15:21:47.789Z,20.54
2022-10-23T15:24:13.904Z,20.52
2022-10-23T15:26:40.055Z,20.52
2022-10-23T15:29:06.177Z,20.54
2022-10-23T15:31:32.286Z,20.51
2022-10-23T15:33:58.415Z,20.54
2022-10-23T15:36:24.529Z,20.50
2022-10-23T15:38:50.654Z,20.41
2022-10-23T15:41:16.776Z,20.34
2022-10-23T15:43:42.931Z,20.28
2022-10-23T15:46:10.336Z,20.19
2022-10-23T15:48:36.483Z,20.13
2022-10-23T15:51:02.639Z,20.01
2022-10-23T15:53:28.782Z,19.91
2022-10-23T15:55:54.900Z,19.82
2022-10-23T15:58:21.062Z,19.76
2022-10-23T16:00:47.204Z,19.67
2022-10-23T16:03:15.637Z,19.64
2022-10-23T16:05:41.759Z,19.53
2022-10-23T16:08:07.879Z,19.39
2022-10-23T16:10:34.074Z,19.36
2022-10-23T16:13:00.193Z,19.26
2022-10-23T16:15:26.322Z,19.15
2022-10-23T16:17:52.471Z,18.98
2022-10-23T16:20:18.583Z,18.79
2022-10-23T16:22:45.054Z,18.61
2022-10-23T16:25:11.330Z,18.45
2022-10-23T16:27:37.445Z,18.36
2022-10-23T16:30:03.574Z,18.31
2022-10-23T16:32:29.714Z,18.37
2022-10-23T16:34:55.898Z,18.38
2022-10-23T16:37:22.064Z,18.46
2022-10-23T16:39:48.325Z,18.55
2022-10-23T16:42:14.533Z,18.63
2022-10-23T16:44:40.875Z,18.66
2022-10-23T16:47:07.022Z,18.63
2022-10-23T16:49:33.189Z,18.64
2022-10-23T16:51:59.378Z,18.71
2022-10-23T16:54:25.575Z,18.81
2022-10-23T16:56:56.176Z,18.94
2022-10-23T16:59:25.357Z,18.99
2022-10-23T17:02:14.345Z,19.00
2022-10-23T17:04:38.310Z,19.02
2022-10-23T17:07:04.549Z,19.04
2022-10-23T17:09:30.746Z,19.20
2022-10-23T17:11:57.079Z,19.44
2022-10-23T17:14:23.624Z,19.54
2022-10-23T17:16:54.340Z,19.55
2022-10-23T17:22:09.308Z,19.48
2022-10-23T17:24:35.577Z,19.45
2022-10-23T17:27:01.815Z,19.43
2022-10-23T17:29:27.973Z,19.42
2022-10-23T17:31:54.137Z,19.43
2022-10-23T17:34:20.430Z,19.43
2022-10-23T17:36:46.673Z,19.37
2022-10-23T17:39:12.953Z,19.38
2022-10-23T17:41:39.099Z,19.32
2022-10-23T17:44:05.282Z,19.14
2022-10-23T17:46:31.490Z,18.56
2022-10-23T17:48:57.734Z,18.04
2022-10-23T17:51:23.891Z,17.64
2022-10-23T17:53:50.030Z,17.33
2022-10-23T17:56:16.214Z,17.08
2022-10-23T17:58:43.666Z,16.87
2022-10-23T18:01:09.945Z,16.76
2022-10-23T18:03:36.432Z,16.64
2022-10-23T18:06:02.790Z,16.52
2022-10-23T18:08:29.075Z,16.43
2022-10-23T18:10:55.241Z,16.35
2022-10-23T18:13:21.375Z,16.39
2022-10-23T18:15:47.542Z,16.30
2022-10-23T18:18:13.645Z,16.23
2022-10-23T18:20:39.811Z,16.21
2022-10-23T18:23:05.955Z,16.15
2022-10-23T18:25:32.476Z,16.14
2022-10-23T18:28:01.743Z,16.15
2022-10-23T18:30:28.763Z,16.14
2022-10-23T18:32:55.176Z,16.15
2022-10-23T18:35:21.819Z,16.14
2022-10-23T18:37:48.074Z,16.13
2022-10-23T18:40:14.245Z,16.15
2022-10-23T18:42:40.467Z,16.18
2022-10-23T18:45:06.948Z,16.15
2022-10-23T18:47:33.083Z,16.14
2022-10-23T18:49:59.252Z,16.18
2022-10-23T18:52:25.456Z,16.21
2022-10-23T18:54:51.793Z,16.17
2022-10-23T18:57:18.135Z,16.16
2022-10-23T18:59:46.159Z,16.19
2022-10-23T19:02:12.598Z,16.20
2022-10-23T19:04:38.933Z,16.18
2022-10-23T19:07:05.094Z,16.19
2022-10-23T19:09:31.784Z,16.23
2022-10-23T19:11:58.069Z,16.23
2022-10-23T19:14:24.587Z,16.22
2022-10-23T19:16:50.793Z,16.20
2022-10-23T19:19:17.145Z,16.20
2022-10-23T19:21:43.393Z,16.23
2022-10-23T19:24:09.626Z,16.20
2022-10-23T19:26:36.521Z,16.21
2022-10-23T19:29:03.466Z,16.21
2022-10-23T19:31:29.599Z,16.16
2022-10-23T19:33:55.943Z,16.14
2022-10-23T19:36:23.521Z,16.12
2022-10-23T19:38:50.220Z,16.10
2022-10-23T19:41:16.574Z,16.07
2022-10-23T19:43:42.701Z,16.06
2022-10-23T19:46:11.258Z,16.04
2022-10-23T19:48:39.980Z,15.97
2022-10-23T19:51:06.201Z,15.96
2022-10-23T19:53:32.855Z,15.93
2022-10-23T19:55:59.012Z,15.96
2022-10-23T19:58:25.138Z,15.93
2022-10-23T20:00:51.672Z,15.92
2022-10-23T20:03:18.679Z,15.90
2022-10-23T20:05:45.021Z,15.89
2022-10-23T20:08:11.335Z,15.87
2022-10-23T20:10:37.596Z,15.89
2022-10-23T20:13:18.611Z,15.87
2022-10-23T20:15:45.613Z,15.88
2022-10-23T20:18:11.757Z,15.87
2022-10-23T20:20:40.187Z,15.85
2022-10-23T20:23:06.345Z,15.87
2022-10-23T20:25:32.847Z,15.88
2022-10-23T20:27:59.106Z,15.90
2022-10-23T20:30:25.374Z,15.94
2022-10-23T20:32:51.569Z,15.92
2022-10-23T20:35:17.794Z,15.90
2022-10-23T20:37:44.446Z,15.90
2022-10-23T20:40:10.828Z,15.88
2022-10-23T20:42:36.950Z,15.88
2022-10-23T20:45:03.327Z,15.87
2022-10-23T20:47:29.503Z,15.87
2022-10-23T20:49:55.709Z,15.86
2022-10-23T20:52:21.884Z,15.87
2022-10-23T20:54:48.104Z,15.88
2022-10-23T20:57:17.965Z,15.88
2022-10-23T20:59:47.433Z,15.86
2022-10-23T21:02:13.680Z,15.84
2022-10-23T21:04:39.887Z,15.81
2022-10-23T21:07:10.699Z,15.77
2022-10-23T21:09:37.404Z,15.77
2022-10-23T21:12:03.596Z,15.72
2022-10-23T21:14:29.719Z,15.70
2022-10-23T21:16:55.880Z,15.70
2022-10-23T21:19:22.042Z,15.70
2022-10-23T21:21:48.181Z,15.74
2022-10-23T21:24:14.831Z,15.71
2022-10-23T21:26:40.950Z,15.71
2022-10-23T21:29:17.842Z,15.67
2022-10-23T21:31:44.983Z,15.65
2022-10-23T21:36:54.168Z,15.63
2022-10-23T21:39:28.360Z,15.58
2022-10-23T21:41:54.695Z,15.55
2022-10-23T21:44:20.819Z,15.49
2022-10-23T21:46:46.984Z,15.43
2022-10-23T21:49:13.132Z,15.48
2022-10-23T21:51:39.268Z,15.49
2022-10-23T21:54:05.437Z,15.50
2022-10-23T21:56:31.579Z,15.45
2022-10-23T21:58:57.788Z,15.41
2022-10-23T22:01:24.070Z,15.36
2022-10-23T22:03:50.282Z,15.31
2022-10-23T22:06:16.436Z,15.26
2022-10-23T22:08:42.582Z,15.25
2022-10-23T22:11:08.713Z,15.22
2022-10-23T22:13:34.973Z,15.17
2022-10-23T22:16:01.076Z,15.14
2022-10-23T22:18:27.198Z,15.13
2022-10-23T22:20:53.780Z,15.13
2022-10-23T22:23:21.597Z,15.14
2022-10-23T22:25:47.740Z,15.14
2022-10-23T22:28:13.947Z,15.13
2022-10-23T22:30:40.082Z,15.07
2022-10-23T22:33:06.195Z,15.02
2022-10-23T22:35:32.341Z,14.98
2022-10-23T22:37:58.475Z,14.90
2022-10-23T22:40:24.578Z,14.85
2022-10-23T22:42:50.720Z,14.84
2022-10-23T22:45:17.649Z,14.80
2022-10-23T22:47:43.818Z,14.75
2022-10-23T22:50:09.955Z,14.70
2022-10-23T22:52:36.117Z,14.68
2022-10-23T22:55:02.362Z,14.68
2022-10-23T22:57:28.511Z,14.66
2022-10-23T22:59:54.754Z,14.59
2022-10-23T23:02:20.885Z,14.55
2022-10-23T23:04:47.069Z,14.48
2022-10-23T23:07:13.657Z,14.47
2022-10-23T23:09:39.892Z,14.42
2022-10-23T23:12:06.015Z,14.39
2022-10-23T23:14:32.162Z,14.38
2022-10-23T23:16:58.303Z,14.39
2022-10-23T23:19:24.455Z,14.38
2022-10-23T23:21:50.621Z,14.37
2022-10-23T23:24:16.864Z,14.35
2022-10-23T23:26:42.998Z,14.29
2022-10-23T23:29:09.111Z,14.27
2022-10-23T23:31:35.245Z,14.28
2022-10-23T23:34:01.390Z,14.38
2022-10-23T23:36:27.524Z,14.36
2022-10-23T23:38:53.683Z,14.39
2022-10-23T23:41:19.845Z,14.33
2022-10-23T23:43:46.002Z,14.32
2022-10-23T23:46:12.112Z,14.35
2022-10-23T23:48:38.248Z,14.34
2022-10-23T23:51:04.405Z,14.34
2022-10-23T23:53:30.506Z,14.32
2022-10-23T23:55:56.609Z,14.31
2022-10-23T23:58:22.778Z,14.27
